createdAt,value
2019-03-15T00:00:45.914Z,86.74
2019-03-15T00:02:56.728Z,86.58
2019-03-15T00:05:07.543Z,86.56
2019-03-15T00:07:18.397Z,86.51
2019-03-15T00:09:29.200Z,86.45
2019-03-15T00:11:40.028Z,86.37
2019-03-15T00:13:50.833Z,86.17
2019-03-15T00:16:01.640Z,85.89
2019-03-15T00:18:12.472Z,85.90
2019-03-15T00:23:02.464Z,85.66
2019-03-15T00:25:13.283Z,85.49
2019-03-15T00:27:24.084Z,85.44
2019-03-15T00:29:34.896Z,85.42
2019-03-15T00:31:45.709Z,85.34
2019-03-15T00:33:56.605Z,85.16
2019-03-15T00:36:07.429Z,84.97
2019-03-15T00:38:18.262Z,85.21
2019-03-15T00:40:29.070Z,84.87
2019-03-15T00:42:39.892Z,84.43
2019-03-15T00:44:50.689Z,84.42
2019-03-15T00:47:01.507Z,84.27
2019-03-15T00:49:12.308Z,84.30
2019-03-15T00:51:23.102Z,84.44
2019-03-15T00:53:33.940Z,84.48
2019-03-15T00:55:45.471Z,84.41
2019-03-15T00:57:57.418Z,84.40
2019-03-15T01:00:49.889Z,84.46
2019-03-15T01:03:00.711Z,84.42
2019-03-15T01:05:11.513Z,84.28
2019-03-15T01:07:22.324Z,84.11
2019-03-15T01:09:33.141Z,84.00
2019-03-15T01:11:45.536Z,83.95
2019-03-15T01:13:56.667Z,83.79
2019-03-15T01:16:07.491Z,83.70
2019-03-15T01:18:18.529Z,83.41
2019-03-15T01:20:31.069Z,83.11
2019-03-15T01:22:41.884Z,82.97
2019-03-15T01:24:52.675Z,82.71
2019-03-15T01:27:03.486Z,82.76
2019-03-15T01:29:14.313Z,82.29
2019-03-15T01:31:25.120Z,82.25
2019-03-15T01:33:35.981Z,82.09
2019-03-15T01:35:46.794Z,82.01
2019-03-15T01:37:57.605Z,82.07
2019-03-15T01:40:08.414Z,81.88
2019-03-15T01:42:19.228Z,81.91
2019-03-15T01:44:30.054Z,81.89
2019-03-15T01:46:40.872Z,81.70
2019-03-15T01:48:51.675Z,81.38
2019-03-15T01:51:02.567Z,81.44
2019-03-15T01:53:13.382Z,81.33
2019-03-15T01:55:24.213Z,81.26
2019-03-15T01:57:35.019Z,81.09
2019-03-15T01:59:45.836Z,80.99
2019-03-15T02:01:56.892Z,81.16
2019-03-15T02:04:09.381Z,80.99
2019-03-15T02:06:20.170Z,80.86
2019-03-15T02:08:30.958Z,81.00
2019-03-15T02:10:41.785Z,80.75
2019-03-15T02:12:52.568Z,80.40
2019-03-15T02:15:45.037Z,80.68
2019-03-15T02:17:55.936Z,80.55
2019-03-15T02:20:48.404Z,80.71
2019-03-15T02:22:59.201Z,80.72
2019-03-15T02:25:10.014Z,80.39
2019-03-15T02:27:20.807Z,80.18
2019-03-15T02:29:31.664Z,80.31
2019-03-15T02:31:42.392Z,80.29
2019-03-15T02:33:53.193Z,80.41
2019-03-15T02:36:04.003Z,80.01
2019-03-15T02:38:14.814Z,80.12
2019-03-15T02:40:25.640Z,80.00
2019-03-15T02:42:36.433Z,79.97
2019-03-15T02:44:47.273Z,80.22
2019-03-15T02:46:58.065Z,80.13
2019-03-15T02:49:08.864Z,79.85
2019-03-15T02:51:19.671Z,79.46
2019-03-15T02:53:30.461Z,79.86
2019-03-15T02:55:41.286Z,79.69
2019-03-15T02:57:52.080Z,79.66
2019-03-15T03:00:44.539Z,79.52
2019-03-15T03:02:55.332Z,79.11
2019-03-15T03:05:47.815Z,78.95
2019-03-15T03:07:58.614Z,79.10
2019-03-15T03:10:09.514Z,78.41
2019-03-15T03:12:20.344Z,78.52
2019-03-15T03:14:31.226Z,78.58
2019-03-15T03:16:42.160Z,78.60
2019-03-15T03:18:53.026Z,78.53
2019-03-15T03:21:03.807Z,78.59
2019-03-15T03:23:14.604Z,78.47
2019-03-15T03:25:25.395Z,78.33
2019-03-15T03:27:36.220Z,78.27
2019-03-15T03:29:47.325Z,78.58
2019-03-15T03:31:59.759Z,79.62
2019-03-15T03:34:12.582Z,80.09
2019-03-15T03:36:23.283Z,80.89
2019-03-15T03:38:34.121Z,81.16
2019-03-15T03:40:44.939Z,81.61
2019-03-15T03:42:55.748Z,82.06
2019-03-15T03:48:05.166Z,82.16
2019-03-15T03:50:15.983Z,82.24
2019-03-15T03:52:26.790Z,82.33
2019-03-15T03:54:37.605Z,82.50
2019-03-15T03:56:48.496Z,82.85
2019-03-15T03:58:59.368Z,82.97
2019-03-15T04:01:10.271Z,83.60
2019-03-15T04:03:21.084Z,83.93
2019-03-15T04:06:13.536Z,84.23
2019-03-15T04:08:24.459Z,84.29
2019-03-15T04:10:35.261Z,84.40
2019-03-15T04:12:46.154Z,84.30
2019-03-15T04:14:56.994Z,84.59
2019-03-15T04:17:07.799Z,84.63
2019-03-15T04:19:18.623Z,84.33
2019-03-15T04:21:29.513Z,84.25
2019-03-15T04:23:40.351Z,84.13
2019-03-15T04:25:51.144Z,83.99
2019-03-15T04:28:01.950Z,83.87
2019-03-15T04:30:12.813Z,84.00
2019-03-15T04:32:23.623Z,84.05
2019-03-15T04:34:34.428Z,83.95
2019-03-15T04:36:45.226Z,84.06
2019-03-15T04:38:56.100Z,84.15
2019-03-15T04:41:06.915Z,84.17
2019-03-15T04:43:17.707Z,84.32
2019-03-15T04:45:28.530Z,84.41
2019-03-15T04:47:39.361Z,84.43
2019-03-15T04:49:50.185Z,84.46
2019-03-15T04:52:00.985Z,84.46
2019-03-15T04:54:11.778Z,84.73
2019-03-15T04:56:22.596Z,84.73
2019-03-15T04:58:33.386Z,84.89
2019-03-15T05:00:44.194Z,84.90
2019-03-15T05:02:55.003Z,84.99
2019-03-15T05:05:05.811Z,85.02
2019-03-15T05:07:16.624Z,84.80
2019-03-15T05:09:27.445Z,84.69
2019-03-15T05:11:38.229Z,84.59
2019-03-15T05:13:49.039Z,84.55
2019-03-15T05:15:59.862Z,84.51
2019-03-15T05:18:10.643Z,84.48
2019-03-15T05:20:21.513Z,84.50
2019-03-15T05:22:32.291Z,84.34
2019-03-15T05:24:43.094Z,84.18
2019-03-15T05:26:53.912Z,84.24
2019-03-15T05:29:04.705Z,84.19
2019-03-15T05:31:15.541Z,84.16
2019-03-15T05:33:26.336Z,84.05
2019-03-15T05:35:37.241Z,84.08
2019-03-15T05:37:48.038Z,84.13
2019-03-15T05:39:58.829Z,84.06
2019-03-15T05:42:09.647Z,83.73
2019-03-15T05:44:20.437Z,83.76
2019-03-15T05:46:31.246Z,83.83
2019-03-15T05:48:42.045Z,83.95
2019-03-15T05:50:52.827Z,84.04
2019-03-15T05:53:03.643Z,84.03
2019-03-15T05:55:14.429Z,84.33
2019-03-15T05:57:25.251Z,84.46
2019-03-15T05:59:36.053Z,84.59
2019-03-15T06:01:46.909Z,84.70
2019-03-15T06:03:57.676Z,84.71
2019-03-15T06:06:08.484Z,84.85
2019-03-15T06:08:19.311Z,85.00
2019-03-15T06:10:30.145Z,85.07
2019-03-15T06:12:40.950Z,85.21
2019-03-15T06:14:51.766Z,85.44
2019-03-15T06:17:02.598Z,85.45
2019-03-15T06:19:13.418Z,85.70
2019-03-15T06:21:24.208Z,85.94
2019-03-15T06:23:35.016Z,86.20
2019-03-15T06:25:45.819Z,86.12
2019-03-15T06:27:56.646Z,86.16
2019-03-15T06:30:49.077Z,86.27
2019-03-15T06:32:59.956Z,86.44
2019-03-15T06:35:10.795Z,86.56
2019-03-15T06:37:21.599Z,86.80
2019-03-15T06:39:32.429Z,86.97
2019-03-15T06:41:43.227Z,87.17
2019-03-15T06:43:54.054Z,87.43
2019-03-15T06:46:04.859Z,87.37
2019-03-15T06:48:15.646Z,87.29
2019-03-15T06:50:26.453Z,87.31
2019-03-15T06:52:37.254Z,87.40
2019-03-15T06:54:48.075Z,87.53
2019-03-15T06:56:58.872Z,87.70
2019-03-15T06:59:09.706Z,87.93
2019-03-15T07:01:20.499Z,88.03
2019-03-15T07:03:31.321Z,88.19
2019-03-15T07:05:42.137Z,88.05
2019-03-15T07:07:52.936Z,87.77
2019-03-15T07:10:45.393Z,87.89
2019-03-15T07:12:56.392Z,88.00
2019-03-15T07:15:27.076Z,88.19
2019-03-15T07:17:37.875Z,88.39
2019-03-15T07:19:48.729Z,88.37
2019-03-15T07:21:59.540Z,88.20
2019-03-15T07:24:10.338Z,87.96
2019-03-15T07:26:21.259Z,87.80
2019-03-15T07:28:32.075Z,87.68
2019-03-15T07:30:42.910Z,87.64
2019-03-15T07:32:53.732Z,87.57
2019-03-15T07:35:46.183Z,87.18
2019-03-15T07:37:56.988Z,87.60
2019-03-15T07:40:49.435Z,87.06
2019-03-15T07:43:03.553Z,86.35
2019-03-15T07:45:13.199Z,86.18
2019-03-15T07:47:23.998Z,86.33
2019-03-15T07:49:34.773Z,85.96
2019-03-15T07:51:45.594Z,85.99
2019-03-15T07:53:56.389Z,86.12
2019-03-15T07:56:07.218Z,86.22
2019-03-15T07:58:18.028Z,86.15
2019-03-15T08:00:28.862Z,85.67
2019-03-15T08:02:39.670Z,85.78
2019-03-15T08:04:50.476Z,85.85
2019-03-15T08:07:01.313Z,86.24
2019-03-15T08:09:12.132Z,86.54
2019-03-15T08:11:22.951Z,86.55
2019-03-15T08:13:33.750Z,86.72
2019-03-15T08:15:44.566Z,86.90
2019-03-15T08:17:55.395Z,87.21
2019-03-15T08:20:47.863Z,87.48
2019-03-15T08:22:58.793Z,87.53
2019-03-15T08:25:51.222Z,87.78
2019-03-15T08:28:02.031Z,87.66
2019-03-15T08:30:54.468Z,87.60
2019-03-15T08:33:10.371Z,87.45
2019-03-15T08:35:18.002Z,87.58
2019-03-15T08:37:28.819Z,87.29
2019-03-15T08:39:39.633Z,87.23
2019-03-15T08:41:50.422Z,87.33
2019-03-15T08:44:01.443Z,87.44
2019-03-15T08:46:12.284Z,87.27
2019-03-15T08:48:23.052Z,87.49
2019-03-15T08:50:33.852Z,87.62
2019-03-15T08:52:44.774Z,87.72
2019-03-15T08:55:05.256Z,88.01
2019-03-15T08:57:08.283Z,87.95
2019-03-15T08:59:19.111Z,87.95
2019-03-15T09:01:29.914Z,88.02
2019-03-15T09:03:40.818Z,88.23
2019-03-15T09:05:51.645Z,88.14
2019-03-15T09:08:02.549Z,87.86
2019-03-15T09:10:55.048Z,87.72
2019-03-15T09:13:05.954Z,87.41
2019-03-15T09:15:16.776Z,87.67
2019-03-15T09:17:27.564Z,87.90
2019-03-15T09:19:38.399Z,87.85
2019-03-15T09:21:49.204Z,87.89
2019-03-15T09:24:00.022Z,87.59
2019-03-15T09:26:10.942Z,88.02
2019-03-15T09:28:21.761Z,88.63
2019-03-15T09:30:32.597Z,88.75
2019-03-15T09:32:43.402Z,88.62
2019-03-15T09:34:55.705Z,88.47
2019-03-15T09:37:06.962Z,88.19
2019-03-15T09:39:17.782Z,87.96
2019-03-15T09:41:34.240Z,88.01
2019-03-15T09:43:41.301Z,87.91
2019-03-15T09:45:55.318Z,87.81
2019-03-15T09:48:04.850Z,87.90
2019-03-15T09:50:26.671Z,88.22
2019-03-15T09:52:28.473Z,88.36
2019-03-15T09:54:39.267Z,88.61
2019-03-15T09:56:50.086Z,88.44
2019-03-15T09:59:00.877Z,88.37
2019-03-15T10:01:11.945Z,88.42
2019-03-15T10:03:24.418Z,88.47
2019-03-15T10:05:35.349Z,88.47
2019-03-15T10:07:46.151Z,88.83
2019-03-15T10:09:56.977Z,89.13
2019-03-15T10:12:07.800Z,89.18
2019-03-15T10:14:18.636Z,89.30
2019-03-15T10:16:29.452Z,89.21
2019-03-15T10:18:40.255Z,89.25
2019-03-15T10:20:51.086Z,89.17
2019-03-15T10:23:06.013Z,88.87
2019-03-15T10:25:56.376Z,88.90
2019-03-15T10:28:07.229Z,88.86
2019-03-15T10:30:59.639Z,89.10
2019-03-15T10:33:10.488Z,89.39
2019-03-15T10:35:21.305Z,89.41
2019-03-15T10:37:32.123Z,89.42
2019-03-15T10:39:42.925Z,89.54
2019-03-15T10:41:53.731Z,89.72
2019-03-15T10:44:04.572Z,89.94
2019-03-15T10:46:15.365Z,89.88
2019-03-15T10:48:26.184Z,89.72
2019-03-15T10:50:37.028Z,89.82
2019-03-15T10:52:47.951Z,90.02
2019-03-15T10:54:58.748Z,90.12
2019-03-15T10:57:17.117Z,90.01
2019-03-15T10:59:27.917Z,89.74
2019-03-15T11:01:38.736Z,89.83
2019-03-15T11:03:49.582Z,89.59
2019-03-15T11:06:00.400Z,89.10
2019-03-15T11:08:11.193Z,89.34
2019-03-15T11:10:21.998Z,89.62
2019-03-15T11:12:32.805Z,89.80
2019-03-15T11:14:43.617Z,90.02
2019-03-15T11:16:54.444Z,89.91
2019-03-15T11:19:05.354Z,90.04
2019-03-15T11:21:16.199Z,90.32
2019-03-15T11:23:27.039Z,90.47
2019-03-15T11:25:37.868Z,90.59
2019-03-15T11:27:48.785Z,90.57
2019-03-15T11:29:59.611Z,90.64
2019-03-15T11:32:10.397Z,90.86
2019-03-15T11:34:21.209Z,91.00
2019-03-15T11:36:32.001Z,91.24
2019-03-15T11:38:42.886Z,91.63
2019-03-15T11:40:53.739Z,91.80
2019-03-15T11:43:04.559Z,91.95
2019-03-15T11:45:15.362Z,92.24
2019-03-15T11:47:26.286Z,92.46
2019-03-15T11:49:37.095Z,92.48
2019-03-15T11:51:47.921Z,92.34
2019-03-15T11:53:58.716Z,92.04
2019-03-15T11:56:09.554Z,91.67
2019-03-15T11:58:20.342Z,91.53
2019-03-15T12:00:31.180Z,91.02
2019-03-15T12:02:42.090Z,90.46
2019-03-15T12:04:52.946Z,89.99
2019-03-15T12:07:03.764Z,89.39
2019-03-15T12:09:14.577Z,88.52
2019-03-15T12:11:25.401Z,88.37
2019-03-15T12:13:36.209Z,88.49
2019-03-15T12:15:47.044Z,88.43
2019-03-15T12:17:57.854Z,88.42
2019-03-15T12:20:50.342Z,87.86
2019-03-15T12:23:01.147Z,87.53
2019-03-15T12:25:53.623Z,86.90
2019-03-15T12:28:04.463Z,86.50
2019-03-15T12:30:56.932Z,86.71
2019-03-15T12:33:07.860Z,86.37
2019-03-15T12:35:18.652Z,86.04
2019-03-15T12:37:29.487Z,85.92
2019-03-15T12:39:40.299Z,85.67
2019-03-15T12:41:51.125Z,85.10
2019-03-15T12:44:01.920Z,85.02
2019-03-15T12:46:12.728Z,84.71
2019-03-15T12:48:23.584Z,84.68
2019-03-15T12:50:34.372Z,84.58
2019-03-15T12:52:48.004Z,84.32
2019-03-15T12:54:57.897Z,83.96
2019-03-15T12:57:08.731Z,83.94
2019-03-15T12:59:19.543Z,83.95
2019-03-15T13:01:30.360Z,83.90
2019-03-15T13:03:41.197Z,84.09
2019-03-15T13:05:52.113Z,84.13
2019-03-15T13:08:02.967Z,83.81
2019-03-15T13:10:55.412Z,83.76
2019-03-15T13:13:06.221Z,83.63
2019-03-15T13:15:17.140Z,83.35
2019-03-15T13:17:27.963Z,83.27
2019-03-15T13:19:38.791Z,82.88
2019-03-15T13:21:49.638Z,83.03
2019-03-15T13:24:00.447Z,83.25
2019-03-15T13:26:11.270Z,83.17
2019-03-15T13:28:22.086Z,82.41
2019-03-15T13:30:32.922Z,82.40
2019-03-15T13:32:43.837Z,82.56
2019-03-15T13:34:54.690Z,82.58
2019-03-15T13:37:05.469Z,82.29
2019-03-15T13:39:16.297Z,82.16
2019-03-15T13:41:27.103Z,82.07
2019-03-15T13:43:37.924Z,82.32
2019-03-15T13:45:48.749Z,81.72
2019-03-15T13:47:59.562Z,81.21
2019-03-15T13:50:52.028Z,79.72
2019-03-15T13:53:02.871Z,78.57
2019-03-15T13:55:13.688Z,77.84
2019-03-15T13:57:24.505Z,77.50
2019-03-15T13:59:35.333Z,76.55
2019-03-15T14:01:46.136Z,76.36
2019-03-15T14:03:56.950Z,76.29
2019-03-15T14:06:07.757Z,76.86
2019-03-15T14:08:18.566Z,77.43
2019-03-15T14:10:29.408Z,77.79
2019-03-15T14:12:40.201Z,78.10
2019-03-15T14:14:51.038Z,78.13
2019-03-15T14:17:01.850Z,77.87
2019-03-15T14:19:12.754Z,77.51
2019-03-15T14:21:23.611Z,77.93
2019-03-15T14:23:34.419Z,78.23
2019-03-15T14:25:45.236Z,78.23
2019-03-15T14:27:56.034Z,78.36
2019-03-15T14:30:48.514Z,78.21
2019-03-15T14:32:59.322Z,77.89
2019-03-15T14:35:10.150Z,77.65
2019-03-15T14:37:21.058Z,77.51
2019-03-15T14:39:31.875Z,77.09
2019-03-15T14:41:42.683Z,76.72
2019-03-15T14:43:53.559Z,77.42
2019-03-15T14:46:04.470Z,76.76
2019-03-15T14:48:17.028Z,76.36
2019-03-15T14:50:27.853Z,76.62
2019-03-15T14:52:38.655Z,76.45
2019-03-15T14:54:49.441Z,76.79
2019-03-15T14:57:00.258Z,76.11
2019-03-15T14:59:11.088Z,76.19
2019-03-15T15:01:21.939Z,76.34
2019-03-15T15:03:32.733Z,76.19
2019-03-15T15:05:43.571Z,76.00
2019-03-15T15:07:54.541Z,76.46
2019-03-15T15:10:47.049Z,76.51
2019-03-15T15:12:58.079Z,76.56
2019-03-15T15:15:50.573Z,76.73
2019-03-15T15:18:01.439Z,76.27
2019-03-15T15:20:12.279Z,76.55
2019-03-15T15:22:23.131Z,76.65
2019-03-15T15:24:33.924Z,76.39
2019-03-15T15:26:44.765Z,75.97
2019-03-15T15:28:55.554Z,75.90
2019-03-15T15:31:06.376Z,75.55
2019-03-15T15:33:17.198Z,75.16
2019-03-15T15:35:28.009Z,75.59
2019-03-15T15:37:38.924Z,75.71
2019-03-15T15:39:49.725Z,76.38
2019-03-15T15:42:00.557Z,75.61
2019-03-15T15:44:11.415Z,75.67
2019-03-15T15:46:22.219Z,75.82
2019-03-15T15:48:33.066Z,75.13
2019-03-15T15:50:43.902Z,74.90
2019-03-15T15:52:54.732Z,74.67
2019-03-15T15:55:47.187Z,75.03
2019-03-15T15:57:58.085Z,75.04
2019-03-15T16:00:28.786Z,74.63
2019-03-15T16:02:39.564Z,74.50
2019-03-15T16:04:50.403Z,74.44
2019-03-15T16:07:01.189Z,74.64
2019-03-15T16:09:12.031Z,74.75
2019-03-15T16:11:22.853Z,74.58
2019-03-15T16:13:33.672Z,74.58
2019-03-15T16:15:44.469Z,74.33
2019-03-15T16:17:55.265Z,74.12
2019-03-15T16:20:47.714Z,74.22
2019-03-15T16:22:58.561Z,74.14
2019-03-15T16:25:51.065Z,74.36
2019-03-15T16:28:01.854Z,74.30
2019-03-15T16:30:54.315Z,74.33
2019-03-15T16:33:05.110Z,74.38
2019-03-15T16:35:15.936Z,73.89
2019-03-15T16:37:26.736Z,73.70
2019-03-15T16:39:37.572Z,74.45
2019-03-15T16:41:48.396Z,74.10
2019-03-15T16:43:59.204Z,74.07
2019-03-15T16:46:10.130Z,73.94
2019-03-15T16:48:20.957Z,74.18
2019-03-15T16:50:31.787Z,74.17
2019-03-15T16:52:42.600Z,74.12
2019-03-15T16:54:53.429Z,74.02
2019-03-15T16:57:04.232Z,74.11
2019-03-15T16:59:15.054Z,74.28
2019-03-15T17:01:25.880Z,74.43
2019-03-15T17:03:36.712Z,74.53
2019-03-15T17:05:47.510Z,74.57
2019-03-15T17:07:58.338Z,74.82
2019-03-15T17:10:29.028Z,74.86
2019-03-15T17:12:39.860Z,74.90
2019-03-15T17:14:50.674Z,75.22
2019-03-15T17:17:01.496Z,74.92
2019-03-15T17:19:12.291Z,75.28
2019-03-15T17:21:23.117Z,75.50
2019-03-15T17:23:33.949Z,75.08
2019-03-15T17:25:44.863Z,75.05
2019-03-15T17:27:55.660Z,74.93
2019-03-15T17:30:26.338Z,75.18
2019-03-15T17:32:37.196Z,75.36
2019-03-15T17:34:48.012Z,75.31
2019-03-15T17:37:06.528Z,75.10
2019-03-15T17:39:11.573Z,75.23
2019-03-15T17:41:22.391Z,75.29
2019-03-15T17:43:33.216Z,75.30
2019-03-15T17:45:44.014Z,75.07
2019-03-15T17:47:54.846Z,74.76
2019-03-15T17:50:47.324Z,74.97
2019-03-15T17:52:58.174Z,74.69
2019-03-15T17:55:09.063Z,74.70
2019-03-15T17:57:19.910Z,75.12
2019-03-15T17:59:30.716Z,75.20
2019-03-15T18:01:41.525Z,74.85
2019-03-15T18:03:52.479Z,75.05
2019-03-15T18:06:03.459Z,74.53
2019-03-15T18:08:14.290Z,74.86
2019-03-15T18:10:25.118Z,74.81
2019-03-15T18:12:35.921Z,74.96
2019-03-15T18:14:46.745Z,75.63
2019-03-15T18:16:57.666Z,76.15
2019-03-15T18:19:08.479Z,76.21
2019-03-15T18:21:19.498Z,76.65
2019-03-15T18:23:30.313Z,76.58
2019-03-15T18:26:22.778Z,76.89
2019-03-15T18:28:33.608Z,76.69
2019-03-15T18:30:44.407Z,76.50
2019-03-15T18:32:55.222Z,76.27
2019-03-15T18:35:47.723Z,76.31
2019-03-15T18:37:58.521Z,76.48
2019-03-15T18:40:51.001Z,75.96
2019-03-15T18:43:01.827Z,75.93
2019-03-15T18:45:32.512Z,75.84
2019-03-15T18:48:24.967Z,76.01
2019-03-15T18:51:17.436Z,75.82
2019-03-15T18:53:28.288Z,75.35
2019-03-15T18:55:39.073Z,75.47
2019-03-15T18:57:50.016Z,75.46
2019-03-15T19:00:00.858Z,75.53
2019-03-15T19:02:11.711Z,75.46
2019-03-15T19:04:22.492Z,75.32
2019-03-15T19:06:33.340Z,75.20
2019-03-15T19:08:44.173Z,75.19
2019-03-15T19:10:55.018Z,75.13
2019-03-15T19:13:05.848Z,74.61
2019-03-15T19:15:58.349Z,74.61
2019-03-15T19:18:09.149Z,74.60
2019-03-15T19:20:20.089Z,74.38
2019-03-15T19:22:30.975Z,74.62
2019-03-15T19:24:41.779Z,74.62
2019-03-15T19:26:52.678Z,74.81
2019-03-15T19:29:03.596Z,74.71
2019-03-15T19:31:14.468Z,74.92
2019-03-15T19:33:25.286Z,74.54
2019-03-15T19:35:36.140Z,74.74
2019-03-15T19:37:47.015Z,74.88
2019-03-15T19:39:57.916Z,74.52
2019-03-15T19:42:08.857Z,74.56
2019-03-15T19:44:19.710Z,74.52
2019-03-15T19:46:30.619Z,74.52
2019-03-15T19:48:42.269Z,74.50
2019-03-15T19:50:54.251Z,74.69
2019-03-15T19:53:05.095Z,74.48
2019-03-15T19:55:16.016Z,74.46
2019-03-15T19:57:26.845Z,74.44
2019-03-15T19:59:37.663Z,74.51
2019-03-15T20:01:48.524Z,74.43
2019-03-15T20:03:59.332Z,74.40
2019-03-15T20:06:10.165Z,74.73
2019-03-15T20:08:20.989Z,74.68
2019-03-15T20:10:31.884Z,74.85
2019-03-15T20:12:42.808Z,75.16
2019-03-15T20:14:53.660Z,75.30
2019-03-15T20:17:04.594Z,75.26
2019-03-15T20:19:15.422Z,75.57
2019-03-15T20:21:26.281Z,75.42
2019-03-15T20:23:37.127Z,75.37
2019-03-15T20:26:07.799Z,76.37
2019-03-15T20:28:18.623Z,76.37
2019-03-15T20:30:29.546Z,75.97
2019-03-15T20:32:40.361Z,76.18
2019-03-15T20:34:51.204Z,75.75
2019-03-15T20:37:02.178Z,75.90
2019-03-15T20:39:12.953Z,75.84
2019-03-15T20:41:23.804Z,75.83
2019-03-15T20:43:34.605Z,76.06
2019-03-15T20:45:45.439Z,76.11
2019-03-15T20:47:56.247Z,76.26
2019-03-15T20:50:48.736Z,76.85
2019-03-15T20:53:08.646Z,77.13
2019-03-15T20:55:12.478Z,77.93
2019-03-15T20:57:23.288Z,77.77
2019-03-15T20:59:34.117Z,77.82
2019-03-15T21:01:44.943Z,77.96
2019-03-15T21:03:56.522Z,78.04
2019-03-15T21:06:08.475Z,78.21
2019-03-15T21:08:19.361Z,78.25
2019-03-15T21:10:30.171Z,78.27
2019-03-15T21:12:40.995Z,78.36
2019-03-15T21:14:52.195Z,78.73
2019-03-15T21:17:03.039Z,78.96
2019-03-15T21:19:13.874Z,78.71
2019-03-15T21:21:24.720Z,78.92
2019-03-15T21:23:35.564Z,79.03
2019-03-15T21:25:46.417Z,79.60
2019-03-15T21:27:57.258Z,79.85
2019-03-15T21:30:49.758Z,80.15
2019-03-15T21:33:00.553Z,80.21
2019-03-15T21:35:11.466Z,80.37
2019-03-15T21:37:22.286Z,80.64
2019-03-15T21:39:33.135Z,80.67
2019-03-15T21:41:43.974Z,80.43
2019-03-15T21:43:54.918Z,80.73
2019-03-15T21:46:05.742Z,80.33
2019-03-15T21:48:16.562Z,80.05
2019-03-15T21:50:27.387Z,79.99
2019-03-15T21:52:38.211Z,80.01
2019-03-15T21:54:49.005Z,79.78
2019-03-15T21:56:59.831Z,79.42
2019-03-15T21:59:10.644Z,79.69
2019-03-15T22:01:21.500Z,79.52
2019-03-15T22:03:32.331Z,79.28
2019-03-15T22:05:43.163Z,79.32
2019-03-15T22:07:54.009Z,79.17
2019-03-15T22:10:46.476Z,79.14
2019-03-15T22:12:57.305Z,79.02
2019-03-15T22:15:49.743Z,79.19
2019-03-15T22:18:00.659Z,78.91
2019-03-15T22:20:53.090Z,78.67
2019-03-15T22:23:04.001Z,78.39
2019-03-15T22:25:14.833Z,78.48
2019-03-15T22:27:25.643Z,78.53
2019-03-15T22:29:36.471Z,78.57
2019-03-15T22:31:47.301Z,78.06
2019-03-15T22:33:58.157Z,78.16
2019-03-15T22:36:09.005Z,77.93
2019-03-15T22:38:26.114Z,77.58
2019-03-15T22:40:32.580Z,77.79
2019-03-15T22:42:43.451Z,77.56
2019-03-15T22:44:54.252Z,77.85
2019-03-15T22:47:05.037Z,77.71
2019-03-15T22:49:15.853Z,77.80
2019-03-15T22:51:26.681Z,77.78
2019-03-15T22:53:37.500Z,77.78
2019-03-15T22:55:48.317Z,77.49
2019-03-15T22:58:00.269Z,77.34
2019-03-15T23:00:51.605Z,77.39
2019-03-15T23:03:02.879Z,77.12
2019-03-15T23:05:13.876Z,77.45
2019-03-15T23:07:24.681Z,77.59
2019-03-15T23:09:35.478Z,77.46
2019-03-15T23:11:46.294Z,77.33
2019-03-15T23:13:57.224Z,77.23
2019-03-15T23:16:08.041Z,77.08
2019-03-15T23:18:18.833Z,77.34
2019-03-15T23:20:29.648Z,77.15
2019-03-15T23:22:40.467Z,77.54
2019-03-15T23:24:51.363Z,77.63
2019-03-15T23:27:02.196Z,77.63
2019-03-15T23:29:13.008Z,77.54
2019-03-15T23:31:23.868Z,77.75
2019-03-15T23:33:34.622Z,78.03
2019-03-15T23:35:53.855Z,78.08
2019-03-15T23:37:58.187Z,78.23
2019-03-15T23:40:50.615Z,78.31
2019-03-15T23:43:01.436Z,78.30
2019-03-15T23:45:12.248Z,78.54
2019-03-15T23:47:23.065Z,78.59
2019-03-15T23:49:33.871Z,78.67
2019-03-15T23:51:44.660Z,78.61
2019-03-15T23:53:55.500Z,78.67
2019-03-15T23:56:06.325Z,78.57
2019-03-15T23:58:17.139Z,78.46
